Time;durP1;ratioP1;P1;durP2;ratioP2;P2;SDS_P1;SDS_P2;PMS_P1;PMS_P2;Temp;Humidity;BMP_temperature;BMP_pressure;BME280_temperature;BME280_humidity;BME280_pressure;Samples;Min_cycle;Max_cycle;Signal;HPM_P1;HPM_P2
2023/09/12 00:02:05;;;;;;;25.05;16.83;;;;;;;;;;5089139;28;20430;-69
2023/09/12 00:04:34;;;;;;;22.92;14.93;;;;;;;;;;5090500;28;20048;-68
2023/09/12 00:07:01;;;;;;;27.60;17.00;;;;;;;;;;5077920;28;20779;-68
2023/09/12 00:09:28;;;;;;;25.15;16.08;;;;;;;;;;5073797;28;20059;-68
2023/09/12 00:11:56;;;;;;;23.40;16.08;;;;;;;;;;5090556;28;20056;-68
2023/09/12 00:14:23;;;;;;;24.50;16.70;;;;;;;;;;5072987;28;20052;-68
2023/09/12 00:16:52;;;;;;;25.60;16.05;;;;;;;;;;5088593;28;20047;-68
2023/09/12 00:19:19;;;;;;;27.05;16.90;;;;;;;;;;5089042;28;20445;-68
2023/09/12 00:21:48;;;;;;;27.35;16.13;;;;;;;;;;5086708;28;20621;-68
2023/09/12 00:24:15;;;;;;;25.55;15.68;;;;;;;;;;5068132;28;20091;-68
2023/09/12 00:26:42;;;;;;;28.48;17.10;;;;;;;;;;5098188;28;20471;-68
2023/09/12 00:29:10;;;;;;;27.02;16.77;;;;;;;;;;5095894;28;20047;-68
2023/09/12 00:31:37;;;;;;;29.55;16.85;;;;;;;;;;5089297;28;20060;-69
2023/09/12 00:34:04;;;;;;;36.88;18.02;;;;;;;;;;5072634;28;20048;-68
2023/09/12 00:36:32;;;;;;;28.70;16.75;;;;;;;;;;5085244;28;20746;-68
2023/09/12 00:39:01;;;;;;;25.05;16.33;;;;;;;;;;5079500;28;20051;-68
2023/09/12 00:41:28;;;;;;;28.75;16.70;;;;;;;;;;5082084;28;20055;-68
2023/09/12 00:43:55;;;;;;;31.85;17.27;;;;;;;;;;5090017;28;20056;-68
2023/09/12 00:46:23;;;;;;;25.88;16.73;;;;;;;;;;5089841;28;20044;-68
2023/09/12 00:48:51;;;;;;;32.67;17.60;;;;;;;;;;5084657;28;20130;-68
2023/09/12 00:51:20;;;;;;;28.40;17.83;;;;;;;;;;5088770;28;20048;-68
2023/09/12 00:53:48;;;;;;;27.73;17.27;;;;;;;;;;5083954;28;20044;-68
2023/09/12 00:56:16;;;;;;;29.92;17.42;;;;;;;;;;5089556;28;20044;-68
2023/09/12 00:58:45;;;;;;;28.80;17.83;;;;;;;;;;5086137;28;20048;-68
2023/09/12 01:01:12;;;;;;;32.10;17.67;;;;;;;;;;5084531;28;20158;-68
2023/09/12 01:03:39;;;;;;;31.20;17.35;;;;;;;;;;5088597;28;20044;-68
2023/09/12 01:06:08;;;;;;;25.52;16.65;;;;;;;;;;5089443;28;20505;-68
2023/09/12 01:08:37;;;;;;;31.33;16.55;;;;;;;;;;5073326;28;20052;-68
2023/09/12 01:11:04;;;;;;;29.58;17.98;;;;;;;;;;5089294;28;20048;-68
2023/09/12 01:13:33;;;;;;;31.25;17.67;;;;;;;;;;5086699;28;20060;-68
2023/09/12 01:16:00;;;;;;;30.88;17.42;;;;;;;;;;5089733;28;20071;-68
2023/09/12 01:18:27;;;;;;;28.13;17.45;;;;;;;;;;5087035;28;20044;-68
2023/09/12 01:21:03;;;;;;;30.50;18.33;;;;;;;;;;5088768;28;20411;-68
2023/09/12 01:23:44;;;;;;;30.67;18.13;;;;;;;;;;5063536;28;20502;-68
2023/09/12 01:26:19;;;;;;;33.20;18.40;;;;;;;;;;5088544;28;20048;-67
2023/09/12 01:28:48;;;;;;;28.05;17.52;;;;;;;;;;5072693;28;20388;-68
2023/09/12 01:31:17;;;;;;;30.45;18.42;;;;;;;;;;5085409;28;20051;-68
2023/09/12 01:33:44;;;;;;;30.23;17.15;;;;;;;;;;5078885;28;20109;-68
2023/09/12 01:36:11;;;;;;;32.63;17.70;;;;;;;;;;5077567;28;20403;-68
2023/09/12 01:38:39;;;;;;;35.78;18.67;;;;;;;;;;5089271;28;20497;-68
2023/09/12 01:41:06;;;;;;;30.30;18.05;;;;;;;;;;5087329;28;20055;-68
2023/09/12 01:43:34;;;;;;;31.58;18.50;;;;;;;;;;5090716;28;20056;-68
2023/09/12 01:46:03;;;;;;;32.38;19.13;;;;;;;;;;5084515;28;20059;-68
2023/09/12 01:48:34;;;;;;;30.10;17.77;;;;;;;;;;5081687;28;20040;-67
2023/09/12 01:51:02;;;;;;;32.42;18.70;;;;;;;;;;5089055;28;20475;-66
2023/09/12 01:53:30;;;;;;;30.88;18.75;;;;;;;;;;5077305;28;20063;-68
2023/09/12 01:55:58;;;;;;;29.50;18.88;;;;;;;;;;5081724;28;20051;-68
2023/09/12 01:58:26;;;;;;;27.83;17.85;;;;;;;;;;5086612;28;20093;-68
2023/09/12 02:00:54;;;;;;;34.70;18.30;;;;;;;;;;5075446;28;20051;-68
2023/09/12 02:03:22;;;;;;;34.47;19.15;;;;;;;;;;5079346;28;20048;-68
2023/09/12 02:05:50;;;;;;;29.13;17.77;;;;;;;;;;5077536;28;20411;-68
2023/09/12 02:08:17;;;;;;;32.83;17.95;;;;;;;;;;5082833;28;20884;-68
2023/09/12 02:10:44;;;;;;;29.40;18.63;;;;;;;;;;5088813;28;20051;-68
2023/09/12 02:13:11;;;;;;;32.92;19.15;;;;;;;;;;5085058;28;20055;-68
2023/09/12 02:15:38;;;;;;;32.70;18.77;;;;;;;;;;5069738;28;20052;-68
2023/09/12 02:18:06;;;;;;;30.05;17.65;;;;;;;;;;5082008;28;20059;-68
2023/09/12 02:20:39;;;;;;;33.08;19.08;;;;;;;;;;5085226;28;20070;-68
2023/09/12 02:23:06;;;;;;;29.35;18.20;;;;;;;;;;5065282;28;20057;-68
2023/09/12 02:25:33;;;;;;;30.90;18.15;;;;;;;;;;5086909;28;20052;-69
2023/09/12 02:28:01;;;;;;;33.22;19.42;;;;;;;;;;5072667;28;20043;-69
2023/09/12 02:30:28;;;;;;;32.63;18.88;;;;;;;;;;5083545;28;20048;-69
2023/09/12 02:32:55;;;;;;;30.35;17.80;;;;;;;;;;5086145;28;20048;-69
2023/09/12 02:35:22;;;;;;;34.33;19.20;;;;;;;;;;5087453;28;20052;-68
2023/09/12 02:37:51;;;;;;;30.63;18.08;;;;;;;;;;5085926;28;20373;-68
2023/09/12 02:40:19;;;;;;;33.67;18.40;;;;;;;;;;5087485;28;20085;-69
2023/09/12 02:42:46;;;;;;;31.20;19.40;;;;;;;;;;5079161;28;20492;-69
2023/09/12 02:45:13;;;;;;;31.27;19.38;;;;;;;;;;5084174;28;20060;-68
2023/09/12 02:47:43;;;;;;;33.97;19.23;;;;;;;;;;5083149;28;20048;-69
2023/09/12 02:50:10;;;;;;;36.78;19.88;;;;;;;;;;5071456;28;20056;-69
2023/09/12 02:52:37;;;;;;;29.67;17.73;;;;;;;;;;5067639;28;20083;-69
2023/09/12 02:55:07;;;;;;;31.77;18.42;;;;;;;;;;5081275;28;20526;-69
2023/09/12 02:57:34;;;;;;;35.72;19.83;;;;;;;;;;5083048;28;20040;-68
2023/09/12 03:00:01;;;;;;;33.70;18.73;;;;;;;;;;5070139;28;20052;-68
2023/09/12 03:02:29;;;;;;;34.63;19.65;;;;;;;;;;5087307;28;20055;-69
2023/09/12 03:04:56;;;;;;;28.48;17.85;;;;;;;;;;5081249;28;20462;-69
2023/09/12 03:07:23;;;;;;;32.00;17.95;;;;;;;;;;5085098;28;20457;-68
2023/09/12 03:09:51;;;;;;;32.22;17.88;;;;;;;;;;5082866;28;20040;-68
2023/09/12 03:12:19;;;;;;;30.20;16.80;;;;;;;;;;5088330;28;20423;-69
2023/09/12 03:14:46;;;;;;;29.77;16.52;;;;;;;;;;5083553;28;20052;-69
2023/09/12 03:17:14;;;;;;;29.42;15.65;;;;;;;;;;5079103;28;20048;-68
2023/09/12 03:19:41;;;;;;;28.13;16.27;;;;;;;;;;5074477;28;20044;-69
2023/09/12 03:22:08;;;;;;;30.45;17.05;;;;;;;;;;5082354;28;20048;-69
2023/09/12 03:24:35;;;;;;;28.23;17.02;;;;;;;;;;5084672;28;20415;-69
2023/09/12 03:27:03;;;;;;;31.02;17.80;;;;;;;;;;5086903;28;20058;-69
2023/09/12 03:29:31;;;;;;;31.80;17.58;;;;;;;;;;5083575;28;20364;-69
2023/09/12 03:31:58;;;;;;;27.25;17.27;;;;;;;;;;5085793;28;20616;-68
2023/09/12 03:34:26;;;;;;;31.38;18.00;;;;;;;;;;5072104;28;20048;-69
2023/09/12 03:36:53;;;;;;;34.03;18.00;;;;;;;;;;5098623;28;20096;-68
2023/09/12 03:39:20;;;;;;;31.65;18.67;;;;;;;;;;5091954;28;20379;-68
2023/09/12 03:41:47;;;;;;;33.33;17.33;;;;;;;;;;5098935;28;20162;-69
2023/09/12 03:44:15;;;;;;;37.25;18.73;;;;;;;;;;5094165;28;20044;-69
2023/09/12 03:46:43;;;;;;;31.75;17.17;;;;;;;;;;5093124;28;20055;-69
2023/09/12 03:49:10;;;;;;;32.08;17.60;;;;;;;;;;5099323;28;20044;-69
2023/09/12 03:51:38;;;;;;;30.00;18.58;;;;;;;;;;5085685;28;20048;-69
2023/09/12 03:54:05;;;;;;;30.40;16.83;;;;;;;;;;5070958;28;20053;-69
2023/09/12 03:56:32;;;;;;;30.38;16.00;;;;;;;;;;5092488;28;20047;-68
2023/09/12 03:58:59;;;;;;;25.58;15.43;;;;;;;;;;5090705;28;20049;-69
2023/09/12 04:01:27;;;;;;;28.77;16.45;;;;;;;;;;5088173;28;20052;-67
2023/09/12 04:03:55;;;;;;;28.98;16.98;;;;;;;;;;5089244;28;20048;-69
2023/09/12 04:06:23;;;;;;;27.38;16.75;;;;;;;;;;5064359;28;20060;-68
2023/09/12 04:08:50;;;;;;;31.95;16.88;;;;;;;;;;5095499;28;20529;-69
2023/09/12 04:11:17;;;;;;;31.50;18.42;;;;;;;;;;5089477;28;20043;-69
2023/09/12 04:13:44;;;;;;;34.08;19.38;;;;;;;;;;5101697;28;20062;-69
2023/09/12 04:16:12;;;;;;;36.83;20.05;;;;;;;;;;5088174;28;20048;-69
2023/09/12 04:18:39;;;;;;;40.13;21.52;;;;;;;;;;5086160;28;20051;-69
2023/09/12 04:21:08;;;;;;;47.58;22.70;;;;;;;;;;5102441;28;20047;-69
2023/09/12 04:23:35;;;;;;;44.60;23.35;;;;;;;;;;5098490;28;20101;-69
2023/09/12 04:26:03;;;;;;;44.53;22.15;;;;;;;;;;5099294;28;20515;-69
2023/09/12 04:28:30;;;;;;;42.88;22.48;;;;;;;;;;5087597;28;20071;-69
2023/09/12 04:31:03;;;;;;;46.60;24.30;;;;;;;;;;5077769;28;20469;-69
2023/09/12 04:33:30;;;;;;;55.03;24.05;;;;;;;;;;5085545;28;20036;-69
2023/09/12 04:35:59;;;;;;;48.00;24.80;;;;;;;;;;5084763;28;20059;-69
2023/09/12 04:38:28;;;;;;;48.85;23.88;;;;;;;;;;5072036;28;20044;-69
2023/09/12 04:40:55;;;;;;;49.28;25.88;;;;;;;;;;5085772;28;20056;-69
2023/09/12 04:43:23;;;;;;;46.85;24.48;;;;;;;;;;5080120;28;20048;-69
2023/09/12 04:45:50;;;;;;;51.35;24.80;;;;;;;;;;5089269;28;20061;-69
2023/09/12 04:48:17;;;;;;;54.25;26.95;;;;;;;;;;5072207;28;20052;-69
2023/09/12 04:50:44;;;;;;;52.42;25.85;;;;;;;;;;5075684;28;20071;-69
2023/09/12 04:53:12;;;;;;;64.30;28.75;;;;;;;;;;5085074;28;20048;-68
2023/09/12 04:55:40;;;;;;;71.05;30.27;;;;;;;;;;5087108;28;20044;-69
2023/09/12 04:58:08;;;;;;;71.78;31.95;;;;;;;;;;5087433;28;20417;-69
2023/09/12 05:00:35;;;;;;;66.35;30.33;;;;;;;;;;5087669;28;20055;-69
2023/09/12 05:03:03;;;;;;;66.43;29.00;;;;;;;;;;5082803;28;20504;-69
2023/09/12 05:05:31;;;;;;;67.55;30.20;;;;;;;;;;5087341;28;20043;-69
2023/09/12 05:07:58;;;;;;;69.85;31.00;;;;;;;;;;5068757;28;20052;-69
2023/09/12 05:10:26;;;;;;;76.63;32.90;;;;;;;;;;5088807;28;20048;-69
2023/09/12 05:12:54;;;;;;;70.07;31.27;;;;;;;;;;5088925;28;20052;-69
2023/09/12 05:15:21;;;;;;;74.35;31.42;;;;;;;;;;5076194;28;20048;-69
2023/09/12 05:17:49;;;;;;;65.78;29.30;;;;;;;;;;5087402;28;20044;-68
2023/09/12 05:20:16;;;;;;;72.25;29.85;;;;;;;;;;5087437;28;20044;-69
2023/09/12 05:22:43;;;;;;;70.35;29.13;;;;;;;;;;5087636;28;20048;-69
2023/09/12 05:25:10;;;;;;;60.85;27.98;;;;;;;;;;5074945;28;20048;-70
2023/09/12 05:27:38;;;;;;;63.42;28.90;;;;;;;;;;5093737;28;20114;-70
2023/09/12 05:30:07;;;;;;;62.22;27.48;;;;;;;;;;5061603;28;20476;-69
2023/09/12 05:32:36;;;;;;;60.35;25.60;;;;;;;;;;5083591;28;20131;-70
2023/09/12 05:35:03;;;;;;;53.35;24.50;;;;;;;;;;5085696;28;20087;-70
2023/09/12 05:37:31;;;;;;;53.95;24.90;;;;;;;;;;5080148;28;20064;-69
2023/09/12 05:39:58;;;;;;;56.25;25.77;;;;;;;;;;5074692;28;20063;-69
2023/09/12 05:42:25;;;;;;;57.70;26.55;;;;;;;;;;5084581;28;20047;-69
2023/09/12 05:44:53;;;;;;;55.30;25.33;;;;;;;;;;5088144;28;20044;-69
2023/09/12 05:47:21;;;;;;;50.85;25.00;;;;;;;;;;5087247;28;20121;-69
2023/09/12 05:49:49;;;;;;;55.08;25.52;;;;;;;;;;5088174;28;20046;-69
2023/09/12 05:52:16;;;;;;;56.67;26.05;;;;;;;;;;5088623;28;20040;-69
2023/09/12 05:54:43;;;;;;;55.85;26.95;;;;;;;;;;5087801;28;20048;-69
2023/09/12 05:57:11;;;;;;;58.55;26.33;;;;;;;;;;5071990;28;20051;-70
2023/09/12 05:59:39;;;;;;;56.38;26.60;;;;;;;;;;5070741;28;20074;-70
2023/09/12 06:02:08;;;;;;;51.00;26.05;;;;;;;;;;5085597;28;20044;-70
2023/09/12 06:04:36;;;;;;;59.83;26.50;;;;;;;;;;5083383;28;20491;-69
2023/09/12 06:07:04;;;;;;;66.97;27.40;;;;;;;;;;5088820;28;20434;-68
2023/09/12 06:09:31;;;;;;;58.65;26.33;;;;;;;;;;5061940;28;20381;-70
2023/09/12 06:11:59;;;;;;;69.13;28.45;;;;;;;;;;5087119;28;20514;-69
2023/09/12 06:14:26;;;;;;;55.83;27.75;;;;;;;;;;5067030;28;20051;-70
2023/09/12 06:16:53;;;;;;;56.47;28.00;;;;;;;;;;5082186;28;20045;-70
2023/09/12 06:19:20;;;;;;;55.80;26.55;;;;;;;;;;5081898;28;20482;-69
2023/09/12 06:21:49;;;;;;;60.88;27.60;;;;;;;;;;5073114;28;20051;-69
2023/09/12 06:24:18;;;;;;;59.70;26.63;;;;;;;;;;5079049;28;20059;-70
2023/09/12 06:26:45;;;;;;;66.13;30.20;;;;;;;;;;5085980;28;20052;-69
2023/09/12 06:29:13;;;;;;;61.45;28.38;;;;;;;;;;5086182;28;20522;-69
2023/09/12 06:31:41;;;;;;;54.55;27.67;;;;;;;;;;5082860;28;20052;-70
2023/09/12 06:34:09;;;;;;;63.50;28.10;;;;;;;;;;5086738;28;20653;-70
2023/09/12 06:36:36;;;;;;;59.75;28.00;;;;;;;;;;5071849;28;20048;-70
2023/09/12 06:39:05;;;;;;;56.47;28.02;;;;;;;;;;5088543;28;20036;-69
2023/09/12 06:41:32;;;;;;;65.53;27.98;;;;;;;;;;5080789;28;20826;-70
2023/09/12 06:43:59;;;;;;;66.28;28.85;;;;;;;;;;5080047;28;20092;-70
2023/09/12 06:46:27;;;;;;;64.10;28.10;;;;;;;;;;5095246;28;20059;-70
2023/09/12 06:48:54;;;;;;;62.17;27.63;;;;;;;;;;5088790;28;20055;-70
2023/09/12 06:51:24;;;;;;;66.25;27.77;;;;;;;;;;5081154;28;20090;-70
2023/09/12 06:53:52;;;;;;;58.33;27.17;;;;;;;;;;5065535;28;20048;-70
2023/09/12 06:56:21;;;;;;;63.05;28.65;;;;;;;;;;5060851;28;20062;-70
2023/09/12 06:58:48;;;;;;;63.75;28.23;;;;;;;;;;5084559;28;20445;-70
2023/09/12 07:01:16;;;;;;;64.05;28.02;;;;;;;;;;5084244;28;20166;-69
2023/09/12 07:03:43;;;;;;;63.53;28.77;;;;;;;;;;5088266;28;20403;-69
2023/09/12 07:06:10;;;;;;;61.47;27.30;;;;;;;;;;5088381;28;20525;-68
2023/09/12 07:08:37;;;;;;;61.53;27.83;;;;;;;;;;5084580;28;20044;-70
2023/09/12 07:11:06;;;;;;;63.35;27.40;;;;;;;;;;5083533;28;20051;-69
2023/09/12 07:13:35;;;;;;;57.00;26.63;;;;;;;;;;5071074;28;20052;-69
2023/09/12 07:16:04;;;;;;;59.53;27.08;;;;;;;;;;5088543;28;20043;-68
2023/09/12 07:18:32;;;;;;;54.60;25.45;;;;;;;;;;5097085;28;20518;-70
2023/09/12 07:21:00;;;;;;;52.08;26.58;;;;;;;;;;5098270;28;20056;-69
2023/09/12 07:23:27;;;;;;;54.35;25.95;;;;;;;;;;5090421;28;20044;-70
2023/09/12 07:25:57;;;;;;;55.10;25.95;;;;;;;;;;5096797;28;20606;-69
2023/09/12 07:28:24;;;;;;;56.63;26.50;;;;;;;;;;5091692;28;20461;-70
2023/09/12 07:30:53;;;;;;;55.28;26.20;;;;;;;;;;5099138;28;20048;-70
2023/09/12 07:33:21;;;;;;;61.15;26.23;;;;;;;;;;5078445;28;20040;-70
2023/09/12 07:35:48;;;;;;;56.17;26.02;;;;;;;;;;5095418;28;20051;-70
2023/09/12 07:38:15;;;;;;;53.20;25.48;;;;;;;;;;5095979;28;20036;-70
2023/09/12 07:40:43;;;;;;;51.25;25.95;;;;;;;;;;5089748;28;20048;-69
2023/09/12 07:43:10;;;;;;;50.25;24.77;;;;;;;;;;5064916;28;20048;-70
2023/09/12 07:45:38;;;;;;;47.40;23.65;;;;;;;;;;5098732;28;20101;-69
2023/09/12 07:48:07;;;;;;;48.35;22.85;;;;;;;;;;5089451;28;20049;-70
2023/09/12 07:50:35;;;;;;;45.88;22.58;;;;;;;;;;5067632;28;20040;-69
2023/09/12 07:53:02;;;;;;;42.20;22.90;;;;;;;;;;5091828;28;20059;-70
2023/09/12 07:55:34;;;;;;;45.92;23.17;;;;;;;;;;5086326;28;20870;-69
2023/09/12 07:58:01;;;;;;;39.60;19.85;;;;;;;;;;5066390;28;20411;-70
2023/09/12 08:00:29;;;;;;;43.15;19.92;;;;;;;;;;5085497;28;20045;-69
2023/09/12 08:02:56;;;;;;;38.47;20.13;;;;;;;;;;5090765;28;20052;-70
2023/09/12 08:05:24;;;;;;;42.65;20.63;;;;;;;;;;5067707;28;20052;-69
2023/09/12 08:07:52;;;;;;;39.15;19.27;;;;;;;;;;5086915;28;20051;-69
2023/09/12 08:10:19;;;;;;;39.53;18.35;;;;;;;;;;5088785;28;20067;-69
2023/09/12 08:12:46;;;;;;;29.38;17.35;;;;;;;;;;5092614;28;20056;-69
2023/09/12 08:15:13;;;;;;;30.98;17.08;;;;;;;;;;5091701;28;20475;-69
2023/09/12 08:17:41;;;;;;;26.60;15.48;;;;;;;;;;5082252;28;20056;-70
2023/09/12 08:20:10;;;;;;;28.13;15.38;;;;;;;;;;5067524;28;20040;-69
2023/09/12 08:22:38;;;;;;;25.23;14.60;;;;;;;;;;5089337;28;20072;-70
2023/09/12 08:25:07;;;;;;;23.42;13.23;;;;;;;;;;5082866;28;20117;-70
2023/09/12 08:27:34;;;;;;;24.77;13.00;;;;;;;;;;5093052;28;20043;-69
2023/09/12 08:30:01;;;;;;;24.95;12.82;;;;;;;;;;5093698;28;20040;-70
2023/09/12 08:32:29;;;;;;;28.42;12.88;;;;;;;;;;5098000;28;20426;-69
2023/09/12 08:34:56;;;;;;;21.77;12.32;;;;;;;;;;5073271;28;20047;-69
2023/09/12 08:37:23;;;;;;;23.92;12.95;;;;;;;;;;5093997;28;20052;-69
2023/09/12 08:39:56;;;;;;;21.15;12.45;;;;;;;;;;5070192;28;20044;-69
2023/09/12 08:42:24;;;;;;;20.52;12.00;;;;;;;;;;5071158;28;20044;-68
2023/09/12 08:44:51;;;;;;;22.30;11.75;;;;;;;;;;5090815;28;20051;-69
2023/09/12 08:47:21;;;;;;;17.42;9.50;;;;;;;;;;5085390;28;20407;-69
2023/09/12 08:49:48;;;;;;;16.77;9.95;;;;;;;;;;5088373;28;20460;-69
2023/09/12 08:52:15;;;;;;;20.25;10.15;;;;;;;;;;5077468;28;20048;-69
2023/09/12 08:54:42;;;;;;;17.83;9.70;;;;;;;;;;5088177;28;20056;-69
2023/09/12 08:57:12;;;;;;;20.75;10.77;;;;;;;;;;5084693;28;20052;-69
2023/09/12 08:59:41;;;;;;;18.10;10.15;;;;;;;;;;5078079;28;20131;-69
2023/09/12 09:02:09;;;;;;;16.17;8.60;;;;;;;;;;5083630;28;20480;-70
2023/09/12 09:04:37;;;;;;;14.63;9.13;;;;;;;;;;5061061;28;20052;-70
2023/09/12 09:07:05;;;;;;;17.65;8.45;;;;;;;;;;5087530;28;20040;-70
2023/09/12 09:09:33;;;;;;;14.77;8.63;;;;;;;;;;5073899;28;20048;-69
2023/09/12 09:12:00;;;;;;;19.85;9.27;;;;;;;;;;5087009;28;20052;-69
2023/09/12 09:14:28;;;;;;;14.70;8.88;;;;;;;;;;5089032;28;20047;-69
2023/09/12 09:16:56;;;;;;;16.65;9.23;;;;;;;;;;5084687;28;20044;-70
2023/09/12 09:19:23;;;;;;;16.27;8.90;;;;;;;;;;5086937;28;20047;-68
2023/09/12 09:21:50;;;;;;;17.63;8.70;;;;;;;;;;5063527;28;20056;-69
2023/09/12 09:24:19;;;;;;;20.70;9.07;;;;;;;;;;5075753;28;20048;-69
2023/09/12 09:26:47;;;;;;;16.88;8.43;;;;;;;;;;5089161;28;20055;-69
2023/09/12 09:29:16;;;;;;;14.98;8.40;;;;;;;;;;5088428;28;20047;-69
2023/09/12 09:31:45;;;;;;;14.98;8.40;;;;;;;;;;5087587;28;20056;-70
2023/09/12 09:34:13;;;;;;;19.88;8.88;;;;;;;;;;5084002;28;20044;-67
2023/09/12 09:36:43;;;;;;;17.25;8.48;;;;;;;;;;5084156;28;20137;-65
2023/09/12 09:39:10;;;;;;;13.75;8.25;;;;;;;;;;5087060;28;20051;-66
2023/09/12 09:41:38;;;;;;;13.98;8.75;;;;;;;;;;5085408;28;20728;-65
2023/09/12 09:44:06;;;;;;;18.67;9.88;;;;;;;;;;5083076;28;20067;-66
2023/09/12 09:46:33;;;;;;;16.30;9.98;;;;;;;;;;5087957;28;20058;-66
2023/09/12 09:49:02;;;;;;;14.25;9.05;;;;;;;;;;5087073;28;20055;-66
2023/09/12 09:51:32;;;;;;;13.52;7.63;;;;;;;;;;5088743;28;20036;-66
2023/09/12 09:54:00;;;;;;;15.20;7.97;;;;;;;;;;5085241;28;20108;-66
2023/09/12 09:56:28;;;;;;;13.15;8.00;;;;;;;;;;5083135;28;20076;-67
2023/09/12 09:58:56;;;;;;;14.75;7.38;;;;;;;;;;5075205;28;20052;-67
2023/09/12 10:01:24;;;;;;;12.15;6.07;;;;;;;;;;5081391;28;20052;-65
2023/09/12 10:03:52;;;;;;;10.50;6.30;;;;;;;;;;5081745;28;20051;-66
2023/09/12 10:06:21;;;;;;;9.95;5.35;;;;;;;;;;5083948;28;20040;-65
2023/09/12 10:08:51;;;;;;;8.57;5.95;;;;;;;;;;5083708;28;20052;-66
2023/09/12 10:11:19;;;;;;;12.77;6.53;;;;;;;;;;5083845;28;20043;-66
2023/09/12 10:13:48;;;;;;;11.63;7.13;;;;;;;;;;5087932;28;20052;-67
2023/09/12 10:16:17;;;;;;;10.30;6.35;;;;;;;;;;5088117;28;20449;-66
2023/09/12 10:18:51;;;;;;;10.80;6.57;;;;;;;;;;5070975;28;20056;-66
2023/09/12 10:21:21;;;;;;;12.40;6.70;;;;;;;;;;5084399;28;20040;-67
2023/09/12 10:23:50;;;;;;;12.00;6.95;;;;;;;;;;5086648;28;20047;-66
2023/09/12 10:26:18;;;;;;;9.95;6.78;;;;;;;;;;5079047;28;20073;-66
2023/09/12 10:28:46;;;;;;;11.63;6.50;;;;;;;;;;5089719;28;20105;-66
2023/09/12 10:31:14;;;;;;;12.27;6.63;;;;;;;;;;5084370;28;20036;-67
2023/09/12 10:33:42;;;;;;;10.98;6.60;;;;;;;;;;5081132;28;20060;-67
2023/09/12 10:36:10;;;;;;;14.05;6.22;;;;;;;;;;5086915;28;20640;-66
2023/09/12 10:38:40;;;;;;;12.05;6.28;;;;;;;;;;5088214;28;20087;-67
2023/09/12 10:41:10;;;;;;;11.80;6.57;;;;;;;;;;5086634;28;20376;-67
2023/09/12 10:43:38;;;;;;;12.65;6.97;;;;;;;;;;5088601;28;20054;-66
2023/09/12 10:46:06;;;;;;;7.70;6.00;;;;;;;;;;5085573;28;20481;-66
2023/09/12 10:48:34;;;;;;;9.43;6.25;;;;;;;;;;5086456;28;20114;-66
2023/09/12 10:51:03;;;;;;;10.57;6.35;;;;;;;;;;5089390;28;20040;-66
2023/09/12 10:53:33;;;;;;;12.20;6.50;;;;;;;;;;5083617;28;20101;-66
2023/09/12 10:56:01;;;;;;;8.75;6.03;;;;;;;;;;5084410;28;20071;-66
2023/09/12 10:58:29;;;;;;;9.93;6.07;;;;;;;;;;5074487;28;20047;-66
2023/09/12 11:01:14;;;;;;;8.70;5.65;;;;;;;;;;5090350;28;20040;-66
2023/09/12 11:03:42;;;;;;;11.50;5.95;;;;;;;;;;5090445;28;20426;-65
2023/09/12 11:06:21;;;;;;;9.02;5.03;;;;;;;;;;5091385;28;20410;-65
2023/09/12 11:09:10;;;;;;;9.43;5.55;;;;;;;;;;5087079;28;20109;-66
2023/09/12 11:11:39;;;;;;;11.35;6.35;;;;;;;;;;5089034;28;20048;-67
2023/09/12 11:14:06;;;;;;;10.85;6.22;;;;;;;;;;5085603;28;20051;-66
2023/09/12 11:16:34;;;;;;;7.53;6.18;;;;;;;;;;5087264;28;20533;-65
2023/09/12 11:19:14;;;;;;;9.30;5.88;;;;;;;;;;5077857;28;20052;-66
2023/09/12 11:21:42;;;;;;;8.85;5.90;;;;;;;;;;5072379;28;20496;-68
2023/09/12 11:24:09;;;;;;;8.63;5.47;;;;;;;;;;5089458;28;20117;-66
2023/09/12 11:26:36;;;;;;;8.57;5.55;;;;;;;;;;5089054;28;20059;-66
2023/09/12 11:29:14;;;;;;;8.50;5.25;;;;;;;;;;5090121;28;20063;-67
2023/09/12 11:31:42;;;;;;;9.35;4.93;;;;;;;;;;5080184;28;20515;-66
2023/09/12 11:34:10;;;;;;;6.55;5.03;;;;;;;;;;5086219;28;20055;-66
2023/09/12 11:36:42;;;;;;;9.18;4.35;;;;;;;;;;5088661;28;20083;-66
2023/09/12 11:39:24;;;;;;;6.43;4.50;;;;;;;;;;5089416;28;20051;-66
2023/09/12 11:41:51;;;;;;;6.00;4.40;;;;;;;;;;5089980;28;20463;-66
2023/09/12 11:44:21;;;;;;;6.68;4.28;;;;;;;;;;5094290;28;20048;-66
2023/09/12 11:46:50;;;;;;;5.88;3.75;;;;;;;;;;5079803;28;20518;-66
2023/09/12 11:49:17;;;;;;;8.68;4.15;;;;;;;;;;5089681;28;20063;-66
2023/09/12 11:51:48;;;;;;;8.63;3.97;;;;;;;;;;5083665;28;20134;-66
2023/09/12 11:54:16;;;;;;;5.85;4.10;;;;;;;;;;5089476;28;20575;-67
2023/09/12 11:56:43;;;;;;;5.15;2.90;;;;;;;;;;5086166;28;20048;-67
2023/09/12 11:59:10;;;;;;;9.73;3.25;;;;;;;;;;5087502;28;20048;-67
2023/09/12 12:01:39;;;;;;;4.15;2.85;;;;;;;;;;5082306;28;20051;-67
2023/09/12 12:04:07;;;;;;;5.95;3.08;;;;;;;;;;5084265;28;20144;-67
2023/09/12 12:06:35;;;;;;;5.95;3.45;;;;;;;;;;5069993;28;20087;-67
2023/09/12 12:09:04;;;;;;;6.22;3.20;;;;;;;;;;5089084;28;20491;-67
2023/09/12 12:11:32;;;;;;;4.72;2.80;;;;;;;;;;5086038;28;20056;-67
2023/09/12 12:13:59;;;;;;;6.50;2.80;;;;;;;;;;5086600;28;20052;-66
2023/09/12 12:16:27;;;;;;;5.13;3.30;;;;;;;;;;5086786;28;20058;-66
2023/09/12 12:18:57;;;;;;;6.53;4.15;;;;;;;;;;5090980;28;20109;-67
2023/09/12 12:21:24;;;;;;;7.00;3.53;;;;;;;;;;5087286;28;20040;-66
2023/09/12 12:23:59;;;;;;;7.47;3.50;;;;;;;;;;5089775;28;20042;-66
2023/09/12 12:26:27;;;;;;;6.22;3.53;;;;;;;;;;5086464;28;20145;-67
2023/09/12 12:28:54;;;;;;;4.75;3.22;;;;;;;;;;5093904;28;20051;-67
2023/09/12 12:31:24;;;;;;;6.45;2.90;;;;;;;;;;5083456;28;20489;-66
2023/09/12 12:33:51;;;;;;;8.60;3.42;;;;;;;;;;5085791;28;20048;-67
2023/09/12 12:36:20;;;;;;;6.72;3.22;;;;;;;;;;5081237;28;20529;-66
2023/09/12 12:38:48;;;;;;;6.82;3.08;;;;;;;;;;5089197;28;20052;-67
2023/09/12 12:41:16;;;;;;;6.10;3.25;;;;;;;;;;5088857;28;20072;-67
2023/09/12 12:43:43;;;;;;;3.70;2.45;;;;;;;;;;5094050;28;20052;-67
2023/09/12 12:46:12;;;;;;;7.90;3.10;;;;;;;;;;5087466;28;20044;-67
2023/09/12 12:48:43;;;;;;;5.57;3.00;;;;;;;;;;5074325;28;20048;-66
2023/09/12 12:51:17;;;;;;;6.80;2.45;;;;;;;;;;5086678;28;20056;-67
2023/09/12 12:53:47;;;;;;;4.60;2.63;;;;;;;;;;5082977;28;20130;-67
2023/09/12 12:56:15;;;;;;;6.32;3.28;;;;;;;;;;5086399;28;20679;-66
2023/09/12 12:58:49;;;;;;;4.60;2.60;;;;;;;;;;5083445;28;20410;-67
2023/09/12 13:01:16;;;;;;;6.07;2.80;;;;;;;;;;5085916;28;20073;-66
2023/09/12 13:03:44;;;;;;;5.75;2.72;;;;;;;;;;5085931;28;20051;-67
2023/09/12 13:06:13;;;;;;;4.18;2.92;;;;;;;;;;5087557;28;20044;-67
2023/09/12 13:08:42;;;;;;;3.65;2.50;;;;;;;;;;5083567;28;20055;-67
2023/09/12 13:11:10;;;;;;;5.43;2.28;;;;;;;;;;5083037;28;20487;-66
2023/09/12 13:13:38;;;;;;;4.93;2.97;;;;;;;;;;5087484;28;20065;-66
2023/09/12 13:16:05;;;;;;;6.75;3.15;;;;;;;;;;5086964;28;20483;-66
2023/09/12 13:18:33;;;;;;;4.72;2.53;;;;;;;;;;5079414;28;20451;-67
2023/09/12 13:21:00;;;;;;;4.05;2.38;;;;;;;;;;5080192;28;20044;-67
2023/09/12 13:23:28;;;;;;;4.78;2.28;;;;;;;;;;5081183;28;20048;-67
2023/09/12 13:25:56;;;;;;;5.30;2.15;;;;;;;;;;5086203;28;20058;-67
2023/09/12 13:28:25;;;;;;;3.70;2.30;;;;;;;;;;5093263;28;20036;-67
2023/09/12 13:30:52;;;;;;;3.63;2.42;;;;;;;;;;5084366;28;20047;-67
2023/09/12 13:33:20;;;;;;;2.90;1.95;;;;;;;;;;5087303;28;20067;-67
2023/09/12 13:35:48;;;;;;;3.95;2.15;;;;;;;;;;5085366;28;20052;-67
2023/09/12 13:38:16;;;;;;;4.82;2.35;;;;;;;;;;5085210;28;20052;-66
2023/09/12 13:40:45;;;;;;;5.60;2.40;;;;;;;;;;5080956;28;20074;-67
2023/09/12 13:43:12;;;;;;;3.08;2.25;;;;;;;;;;5081090;28;20050;-67
2023/09/12 13:45:41;;;;;;;4.22;2.20;;;;;;;;;;5082072;28;20048;-66
2023/09/12 13:48:08;;;;;;;3.88;2.50;;;;;;;;;;5084332;28;20072;-66
2023/09/12 13:50:36;;;;;;;4.35;2.30;;;;;;;;;;5082493;28;20052;-67
2023/09/12 13:53:06;;;;;;;5.43;2.30;;;;;;;;;;5084549;28;20040;-67
2023/09/12 13:55:35;;;;;;;7.07;2.58;;;;;;;;;;5083275;28;20080;-66
2023/09/12 13:58:03;;;;;;;6.25;2.10;;;;;;;;;;5079160;28;20051;-66
2023/09/12 14:00:30;;;;;;;5.50;2.60;;;;;;;;;;5088420;28;20105;-67
2023/09/12 14:02:59;;;;;;;3.97;2.30;;;;;;;;;;5088623;28;20040;-66
2023/09/12 14:05:26;;;;;;;8.68;2.42;;;;;;;;;;5071981;28;20079;-66
2023/09/12 14:07:53;;;;;;;4.30;1.80;;;;;;;;;;5087945;28;20051;-66
2023/09/12 14:10:21;;;;;;;3.00;2.00;;;;;;;;;;5088120;28;20052;-66
2023/09/12 14:12:48;;;;;;;6.43;2.10;;;;;;;;;;5085318;28;20131;-67
2023/09/12 14:15:15;;;;;;;3.78;1.92;;;;;;;;;;5086609;28;20052;-66
2023/09/12 14:17:43;;;;;;;3.15;2.00;;;;;;;;;;5082787;28;20048;-66
2023/09/12 14:20:15;;;;;;;4.97;2.42;;;;;;;;;;5082459;28;20415;-66
2023/09/12 14:22:43;;;;;;;4.50;2.20;;;;;;;;;;5082376;28;20059;-66
2023/09/12 14:25:14;;;;;;;4.32;2.05;;;;;;;;;;5084466;28;20093;-66
2023/09/12 14:27:42;;;;;;;4.13;2.05;;;;;;;;;;5087359;28;20483;-66
2023/09/12 14:30:09;;;;;;;3.78;1.77;;;;;;;;;;5081020;28;20052;-67
2023/09/12 14:32:37;;;;;;;6.03;1.58;;;;;;;;;;5084466;28;20198;-67